Time;durP1;ratioP1;P1;durP2;ratioP2;P2;SDS_P1;SDS_P2;PMS_P1;PMS_P2;Temp;Humidity;BMP_temperature;BMP_pressure;BME280_temperature;BME280_humidity;BME280_pressure;Samples;Min_cycle;Max_cycle;Signal;HPM_P1;HPM_P2
2021/07/04 00:00:37;;;;;;;2.88;2.63;;;19.40;77.20;;;;;;4930485;29;20047;-81
2021/07/04 00:03:05;;;;;;;3.50;3.20;;;19.40;77.40;;;;;;4929265;29;20036;-82
2021/07/04 00:05:37;;;;;;;3.30;3.00;;;19.40;77.40;;;;;;4930940;29;20046;-81
2021/07/04 00:08:03;;;;;;;3.58;3.28;;;19.40;77.40;;;;;;4945663;29;20028;-81
2021/07/04 00:10:33;;;;;;;3.65;2.88;;;19.40;77.40;;;;;;4929937;29;20071;-80
2021/07/04 00:13:00;;;;;;;4.88;3.40;;;19.30;77.30;;;;;;4930304;29;20028;-81
2021/07/04 00:15:30;;;;;;;2.97;2.67;;;19.30;77.30;;;;;;4945213;29;20087;-80
2021/07/04 00:17:56;;;;;;;3.47;3.17;;;19.30;77.40;;;;;;4928822;29;20031;-80
2021/07/04 00:20:22;;;;;;;4.20;2.90;;;19.30;77.40;;;;;;4929362;29;20333;-81
2021/07/04 00:22:56;;;;;;;3.70;3.33;;;19.30;77.50;;;;;;4945345;29;20178;-82
2021/07/04 00:25:24;;;;;;;4.63;3.63;;;19.30;77.60;;;;;;4930753;29;20067;-82
2021/07/04 00:27:50;;;;;;;6.05;4.28;;;19.30;77.50;;;;;;4931381;29;20032;-82
2021/07/04 00:30:16;;;;;;;4.57;3.92;;;19.20;78.00;;;;;;4911741;29;20078;-82
2021/07/04 00:32:43;;;;;;;5.90;3.45;;;19.20;77.40;;;;;;4909861;29;20032;-81
2021/07/04 00:35:11;;;;;;;5.65;3.75;;;19.20;77.50;;;;;;4911559;29;20050;-81
2021/07/04 00:37:37;;;;;;;4.25;3.92;;;19.20;77.60;;;;;;4911362;29;20480;-81
2021/07/04 00:40:07;;;;;;;4.22;3.53;;;19.20;77.60;;;;;;4928239;29;20039;-81
2021/07/04 00:42:32;;;;;;;5.05;3.88;;;19.20;77.60;;;;;;4928601;29;20195;-80
2021/07/04 00:44:59;;;;;;;6.18;3.72;;;19.20;77.60;;;;;;4944018;29;20032;-80
2021/07/04 00:47:25;;;;;;;4.32;3.78;;;19.10;77.50;;;;;;4930231;29;20083;-81
2021/07/04 00:49:51;;;;;;;4.20;3.63;;;19.20;77.70;;;;;;4928692;29;20046;-80
2021/07/04 00:52:19;;;;;;;4.82;4.25;;;19.10;77.50;;;;;;4929496;29;20032;-80
2021/07/04 00:54:47;;;;;;;5.30;4.35;;;19.10;77.50;;;;;;4928646;29;20043;-80
2021/07/04 00:57:13;;;;;;;4.93;4.28;;;19.10;77.60;;;;;;4928889;29;20368;-80
2021/07/04 00:59:39;;;;;;;6.60;4.40;;;19.10;77.60;;;;;;4930000;29;20412;-80
2021/07/04 01:02:05;;;;;;;7.75;4.82;;;19.10;77.50;;;;;;4929014;29;20412;-81
2021/07/04 01:04:32;;;;;;;5.70;5.00;;;19.10;77.60;;;;;;4928058;29;20558;-80
2021/07/04 01:06:59;;;;;;;7.90;4.65;;;19.10;77.60;;;;;;4929008;29;20453;-81
2021/07/04 01:09:26;;;;;;;6.47;4.78;;;19.10;77.60;;;;;;4916196;29;20040;-81
2021/07/04 01:11:52;;;;;;;7.95;4.13;;;19.10;77.60;;;;;;4909774;29;20518;-81
2021/07/04 01:14:19;;;;;;;6.70;4.47;;;19.10;77.60;;;;;;4920682;29;20115;-81
2021/07/04 01:16:45;;;;;;;5.78;4.60;;;19.10;77.70;;;;;;4928467;29;20043;-81
2021/07/04 01:19:17;;;;;;;5.80;4.68;;;19.00;77.50;;;;;;4912185;29;20491;-80
2021/07/04 01:21:45;;;;;;;5.65;4.45;;;19.00;77.70;;;;;;4928235;29;20352;-81
2021/07/04 01:24:12;;;;;;;5.50;4.57;;;19.00;77.60;;;;;;4927789;29;20031;-81
2021/07/04 01:26:42;;;;;;;6.07;4.50;;;19.00;77.60;;;;;;4928607;29;20036;-81
2021/07/04 01:29:08;;;;;;;5.07;4.45;;;19.10;77.90;;;;;;4927813;29;20038;-81
2021/07/04 01:31:35;;;;;;;6.45;4.57;;;19.00;77.70;;;;;;4920261;29;20063;-81
2021/07/04 01:34:11;;;;;;;5.88;4.90;;;19.00;77.70;;;;;;4907858;29;20100;-81
2021/07/04 01:36:40;;;;;;;7.78;4.75;;;19.00;77.70;;;;;;4917311;29;20036;-80
2021/07/04 01:39:09;;;;;;;5.85;4.95;;;19.00;77.80;;;;;;4924716;29;20028;-82
2021/07/04 01:41:42;;;;;;;6.10;4.43;;;19.00;77.80;;;;;;4930065;29;20385;-82
2021/07/04 01:44:14;;;;;;;6.38;4.13;;;19.00;77.80;;;;;;4930667;29;20392;-80
2021/07/04 01:46:40;;;;;;;6.60;5.13;;;19.00;77.80;;;;;;4918349;29;20044;-81
2021/07/04 01:49:11;;;;;;;10.65;5.60;;;19.00;77.80;;;;;;4901495;29;20423;-82
2021/07/04 01:51:38;;;;;;;6.35;4.18;;;19.00;77.90;;;;;;4949233;29;20480;-82
2021/07/04 01:54:07;;;;;;;7.97;4.70;;;18.90;77.70;;;;;;4917409;29;20472;-80
2021/07/04 01:56:39;;;;;;;5.47;4.80;;;18.90;77.70;;;;;;4932384;29;20032;-80
2021/07/04 01:59:07;;;;;;;7.00;4.93;;;18.90;77.70;;;;;;4932722;29;20087;-80
2021/07/04 02:02:02;;;;;;;6.22;4.90;;;18.90;77.70;;;;;;4932822;29;20126;-80
2021/07/04 02:04:39;;;;;;;7.18;5.13;;;18.90;77.70;;;;;;4936717;29;20032;-81
2021/07/04 02:07:16;;;;;;;;;;;18.90;77.70;;;;;;4952868;29;20038;-82
2021/07/04 02:09:47;;;;;;;5.00;4.40;;;18.90;77.60;;;;;;4951901;29;20447;-82
2021/07/04 02:12:16;;;;;;;6.35;4.63;;;18.90;77.50;;;;;;4937943;29;20042;-82
2021/07/04 02:14:44;;;;;;;7.20;5.63;;;18.90;77.60;;;;;;4936286;29;20032;-80
2021/07/04 02:17:20;;;;;;;6.68;5.40;;;18.90;77.70;;;;;;4952347;29;20034;-81
2021/07/04 02:19:57;;;;;;;6.78;5.07;;;18.90;77.70;;;;;;4936126;29;20187;-81
2021/07/04 02:22:30;;;;;;;7.88;5.43;;;18.80;77.50;;;;;;4936427;29;20036;-81
2021/07/04 02:25:09;;;;;;;5.13;4.72;;;18.90;77.70;;;;;;4935820;29;20150;-81
2021/07/04 02:27:38;;;;;;;8.13;5.38;;;18.80;77.60;;;;;;4936528;29;20031;-81
2021/07/04 02:30:15;;;;;;;9.07;5.15;;;18.80;77.60;;;;;;4936091;29;20055;-80
2021/07/04 02:32:45;;;;;;;5.38;4.90;;;18.80;77.70;;;;;;4935330;29;20110;-81
2021/07/04 02:35:13;;;;;;;8.27;5.85;;;18.80;77.70;;;;;;4935621;29;20036;-80
2021/07/04 02:37:41;;;;;;;5.65;5.07;;;18.80;77.80;;;;;;4935102;29;20055;-80
2021/07/04 02:40:17;;;;;;;5.80;5.18;;;18.80;77.90;;;;;;4951805;29;20027;-80
2021/07/04 02:42:46;;;;;;;6.20;5.13;;;18.80;77.80;;;;;;4951839;29;20054;-79
2021/07/04 02:45:14;;;;;;;7.70;5.53;;;18.70;77.70;;;;;;4915302;29;20039;-80
2021/07/04 02:47:43;;;;;;;5.75;5.10;;;18.80;77.90;;;;;;4916691;29;20115;-80
2021/07/04 02:50:10;;;;;;;7.65;4.65;;;18.80;77.80;;;;;;4917656;29;20067;-80
2021/07/04 02:52:37;;;;;;;5.63;4.82;;;18.70;77.70;;;;;;4917466;29;20032;-80
2021/07/04 02:55:05;;;;;;;5.90;5.13;;;18.70;77.70;;;;;;4917597;29;20035;-81
2021/07/04 02:57:35;;;;;;;5.50;5.00;;;18.70;77.80;;;;;;4916126;29;20039;-81
2021/07/04 03:00:10;;;;;;;7.22;4.53;;;18.70;77.80;;;;;;4916736;29;20035;-81
2021/07/04 03:02:36;;;;;;;5.72;4.88;;;18.70;77.80;;;;;;4915439;29;20056;-82
2021/07/04 03:05:03;;;;;;;5.10;4.38;;;18.70;77.80;;;;;;4915972;29;20044;-82
2021/07/04 03:07:29;;;;;;;6.47;4.47;;;18.70;77.90;;;;;;4916796;29;20611;-82
2021/07/04 03:09:57;;;;;;;6.80;5.03;;;18.70;77.80;;;;;;4916116;29;20032;-83
2021/07/04 03:12:25;;;;;;;7.40;4.90;;;18.70;77.80;;;;;;4914403;29;20047;-82
2021/07/04 03:14:55;;;;;;;5.35;4.85;;;18.70;77.90;;;;;;4914956;29;20032;-81
2021/07/04 03:17:22;;;;;;;5.82;4.65;;;18.70;77.90;;;;;;4899713;29;20031;-83
2021/07/04 03:19:48;;;;;;;6.10;4.68;;;18.70;77.90;;;;;;4915279;29;20035;-82
2021/07/04 03:22:14;;;;;;;5.18;4.78;;;18.60;77.70;;;;;;4915083;29;20036;-81
2021/07/04 03:24:40;;;;;;;6.13;4.32;;;18.60;77.80;;;;;;4915663;29;20038;-82
2021/07/04 03:27:09;;;;;;;6.22;5.07;;;18.60;77.70;;;;;;4916819;29;20040;-81
2021/07/04 03:29:37;;;;;;;8.90;5.50;;;18.60;77.80;;;;;;4914955;29;20512;-81
2021/07/04 03:32:07;;;;;;;7.13;5.47;;;18.60;77.80;;;;;;4916457;29;20028;-82
2021/07/04 03:34:35;;;;;;;6.03;4.78;;;18.60;77.80;;;;;;4923334;29;20076;-82
2021/07/04 03:37:02;;;;;;;5.28;4.50;;;18.60;77.90;;;;;;4917325;29;20028;-81
2021/07/04 03:39:31;;;;;;;6.03;4.88;;;18.60;77.90;;;;;;4915594;29;20036;-82
2021/07/04 03:41:57;;;;;;;5.18;4.28;;;18.60;77.90;;;;;;4915728;29;20032;-82
2021/07/04 03:44:24;;;;;;;5.72;4.55;;;18.50;77.70;;;;;;4915150;29;20036;-82
2021/07/04 03:46:50;;;;;;;5.88;4.95;;;18.60;77.90;;;;;;4915796;29;20052;-82
2021/07/04 03:49:18;;;;;;;6.50;4.72;;;18.50;77.70;;;;;;4915410;29;20047;-82
2021/07/04 03:52:01;;;;;;;5.05;4.55;;;18.50;77.80;;;;;;4917660;29;20527;-83
2021/07/04 03:54:27;;;;;;;5.57;4.93;;;18.50;77.80;;;;;;4915617;29;20028;-81
2021/07/04 03:56:54;;;;;;;5.32;4.53;;;18.50;77.80;;;;;;4930911;29;20040;-82
2021/07/04 03:59:20;;;;;;;5.43;4.55;;;18.50;77.80;;;;;;4915393;29;20211;-81
2021/07/04 04:01:46;;;;;;;5.03;4.53;;;18.50;77.80;;;;;;4916390;29;20615;-81
2021/07/04 04:04:13;;;;;;;5.38;4.88;;;18.50;77.80;;;;;;4915646;29;20488;-82
2021/07/04 04:06:41;;;;;;;5.28;4.78;;;18.50;77.80;;;;;;4914976;29;20034;-82
2021/07/04 04:09:14;;;;;;;6.05;4.85;;;18.50;77.90;;;;;;4916219;29;20107;-82
2021/07/04 04:11:47;;;;;;;5.50;5.00;;;18.50;77.80;;;;;;4916533;29;20064;-80
2021/07/04 04:14:18;;;;;;;7.05;4.88;;;18.50;77.80;;;;;;4915365;29;20055;-80
2021/07/04 04:16:46;;;;;;;4.50;4.10;;;18.50;77.80;;;;;;4914965;29;20481;-81
2021/07/04 04:19:14;;;;;;;6.68;4.63;;;18.50;77.90;;;;;;4914874;29;20060;-79
2021/07/04 04:21:42;;;;;;;5.78;4.63;;;18.50;77.90;;;;;;4914651;29;20039;-81
2021/07/04 04:24:08;;;;;;;6.53;5.25;;;18.40;77.70;;;;;;4914775;29;20125;-80
2021/07/04 04:26:35;;;;;;;6.28;4.57;;;18.50;77.90;;;;;;4916006;29;20543;-81
2021/07/04 04:29:01;;;;;;;4.45;4.07;;;18.40;77.80;;;;;;4915193;29;20032;-83
2021/07/04 04:31:28;;;;;;;5.22;4.68;;;18.40;77.70;;;;;;4914344;29;20032;-83
2021/07/04 04:33:56;;;;;;;5.28;4.38;;;18.40;77.80;;;;;;4914771;29;20147;-81
2021/07/04 04:36:22;;;;;;;4.97;4.55;;;18.40;77.80;;;;;;4914273;29;20419;-81
2021/07/04 04:38:51;;;;;;;7.63;4.70;;;18.40;77.80;;;;;;4898579;29;20032;-81
2021/07/04 04:41:19;;;;;;;7.70;5.03;;;18.40;77.90;;;;;;4915509;29;20103;-82
2021/07/04 04:43:46;;;;;;;4.68;4.25;;;18.40;77.80;;;;;;4915755;29;20043;-82
2021/07/04 04:46:12;;;;;;;9.10;4.85;;;18.40;77.90;;;;;;4915226;29;20038;-82
2021/07/04 04:48:38;;;;;;;5.35;4.85;;;18.40;77.90;;;;;;4911250;29;20402;-82
2021/07/04 04:51:06;;;;;;;6.97;4.03;;;18.40;77.90;;;;;;4911067;29;20036;-82
2021/07/04 04:53:32;;;;;;;4.30;3.95;;;18.40;77.90;;;;;;4912175;29;20079;-82
2021/07/04 04:55:59;;;;;;;5.78;4.45;;;18.40;77.90;;;;;;4910905;29;20032;-82
2021/07/04 04:58:25;;;;;;;5.30;4.30;;;18.40;77.90;;;;;;4922245;29;20443;-84
2021/07/04 05:00:51;;;;;;;4.63;3.97;;;18.40;77.90;;;;;;4931060;29;20039;-83
2021/07/04 05:03:17;;;;;;;6.25;4.28;;;18.40;77.90;;;;;;4916075;29;20029;-84
2021/07/04 05:05:43;;;;;;;6.15;4.72;;;18.40;77.90;;;;;;4940786;29;20043;-83
2021/07/04 05:08:09;;;;;;;5.20;3.70;;;18.40;77.80;;;;;;4942240;29;20095;-83
2021/07/04 05:10:35;;;;;;;4.13;3.72;;;18.40;77.80;;;;;;4929700;29;20067;-82
2021/07/04 05:13:01;;;;;;;4.30;3.90;;;18.50;78.00;;;;;;4922134;29;20040;-82
2021/07/04 05:15:27;;;;;;;4.18;3.88;;;18.40;77.80;;;;;;4909593;29;20032;-82
2021/07/04 05:17:53;;;;;;;5.80;4.00;;;18.50;78.00;;;;;;4911194;29;20111;-83
2021/07/04 05:20:19;;;;;;;8.77;3.88;;;18.50;78.00;;;;;;4909412;29;20476;-83
2021/07/04 05:22:45;;;;;;;4.90;4.13;;;18.50;77.90;;;;;;4912295;29;20030;-83
2021/07/04 05:25:12;;;;;;;5.30;4.10;;;18.50;77.90;;;;;;4909204;29;20036;-83
2021/07/04 05:27:40;;;;;;;3.88;3.53;;;18.50;77.90;;;;;;4912789;29;20027;-83
2021/07/04 05:30:07;;;;;;;5.70;3.80;;;18.50;77.90;;;;;;4909070;29;20091;-82
2021/07/04 05:32:33;;;;;;;4.80;3.80;;;18.50;77.90;;;;;;4913815;29;20140;-82
2021/07/04 05:34:59;;;;;;;3.75;3.45;;;18.50;77.80;;;;;;4944029;29;20406;-82
2021/07/04 05:37:25;;;;;;;4.32;3.92;;;18.50;77.80;;;;;;4928054;29;20024;-80
2021/07/04 05:39:51;;;;;;;4.47;4.18;;;18.50;77.80;;;;;;4914305;29;20099;-81
2021/07/04 05:42:17;;;;;;;4.10;3.25;;;18.50;77.80;;;;;;4902562;29;20397;-81
2021/07/04 05:44:43;;;;;;;4.47;3.38;;;18.60;78.00;;;;;;4901985;28;20032;-84
2021/07/04 05:47:09;;;;;;;3.63;3.30;;;18.60;77.90;;;;;;4901831;29;20083;-85
2021/07/04 05:49:36;;;;;;;4.97;3.83;;;18.60;77.90;;;;;;4928880;29;20095;-84
2021/07/04 05:52:05;;;;;;;4.43;3.45;;;18.70;78.10;;;;;;4929703;29;20126;-81
2021/07/04 05:54:30;;;;;;;3.38;3.08;;;18.70;78.00;;;;;;4931831;29;20047;-80
2021/07/04 05:56:56;;;;;;;3.85;3.45;;;18.70;78.00;;;;;;4910048;29;20028;-81
2021/07/04 05:59:22;;;;;;;4.15;3.53;;;18.80;78.10;;;;;;4924427;29;20126;-79
2021/07/04 06:01:48;;;;;;;5.53;3.30;;;18.90;78.20;;;;;;4913854;29;20024;-78
2021/07/04 06:04:14;;;;;;;3.80;3.40;;;18.80;77.90;;;;;;4922157;29;20032;-79
2021/07/04 06:06:40;;;;;;;4.38;3.75;;;18.90;78.00;;;;;;4906684;29;20037;-77
2021/07/04 06:09:06;;;;;;;5.63;3.70;;;19.00;78.20;;;;;;4901927;29;20042;-78
2021/07/04 06:11:32;;;;;;;3.72;3.42;;;19.00;78.10;;;;;;4898611;29;20377;-80
2021/07/04 06:13:59;;;;;;;4.15;3.42;;;19.10;78.20;;;;;;4904416;29;20028;-81
2021/07/04 06:16:25;;;;;;;4.60;3.45;;;19.20;78.30;;;;;;4903366;29;20117;-79
2021/07/04 06:18:51;;;;;;;3.97;3.58;;;19.20;78.20;;;;;;4919885;29;20132;-79
2021/07/04 06:21:17;;;;;;;3.20;3.00;;;19.20;78.10;;;;;;4928913;29;20032;-77
2021/07/04 06:23:43;;;;;;;4.07;3.55;;;19.30;78.20;;;;;;4943362;29;20099;-79
2021/07/04 06:26:09;;;;;;;3.65;3.15;;;19.30;78.10;;;;;;4929749;29;20035;-78
2021/07/04 06:28:35;;;;;;;4.57;3.72;;;19.30;78.20;;;;;;4928614;29;20035;-81
2021/07/04 06:31:01;;;;;;;3.25;2.95;;;19.40;78.60;;;;;;4928873;29;20047;-78
2021/07/04 06:33:27;;;;;;;5.90;3.08;;;19.50;78.90;;;;;;4912691;29;20036;-78
2021/07/04 06:35:53;;;;;;;6.05;3.67;;;19.60;79.10;;;;;;4903931;29;20496;-79
2021/07/04 06:38:19;;;;;;;3.92;3.22;;;19.70;79.30;;;;;;4909451;29;20047;-78
2021/07/04 06:40:45;;;;;;;4.47;3.45;;;19.70;79.30;;;;;;4902325;29;20496;-79
2021/07/04 06:43:11;;;;;;;5.22;3.42;;;19.80;79.40;;;;;;4929346;29;20500;-79
2021/07/04 06:45:37;;;;;;;4.65;3.03;;;19.80;79.30;;;;;;4903862;29;20072;-79
2021/07/04 06:48:04;;;;;;;4.88;2.85;;;20.00;79.60;;;;;;4901269;29;20432;-80
2021/07/04 06:50:30;;;;;;;3.65;3.10;;;20.00;79.50;;;;;;4909614;29;20048;-82
2021/07/04 06:52:56;;;;;;;2.92;2.65;;;20.20;79.60;;;;;;4908534;29;20036;-81
2021/07/04 06:55:22;;;;;;;3.33;2.80;;;20.30;79.70;;;;;;4933629;29;20528;-81
2021/07/04 06:57:48;;;;;;;3.83;3.00;;;20.40;79.60;;;;;;4908085;29;20031;-83
2021/07/04 07:00:17;;;;;;;4.75;3.08;;;20.50;79.50;;;;;;4910924;29;20028;-82
2021/07/04 07:02:44;;;;;;;3.67;2.97;;;20.70;79.70;;;;;;4902801;29;20035;-82
2021/07/04 07:05:12;;;;;;;3.42;2.45;;;20.80;79.60;;;;;;4902174;29;20365;-80
2021/07/04 07:07:39;;;;;;;3.53;2.75;;;20.90;79.60;;;;;;4905923;29;20546;-78
2021/07/04 07:10:07;;;;;;;2.58;2.38;;;21.00;79.50;;;;;;4901524;29;20087;-79
2021/07/04 07:12:33;;;;;;;3.10;2.55;;;21.10;79.60;;;;;;4903560;29;20028;-77
2021/07/04 07:14:59;;;;;;;2.70;2.50;;;21.10;79.50;;;;;;4897744;29;20503;-80
2021/07/04 07:17:26;;;;;;;4.40;2.78;;;21.20;79.50;;;;;;4906087;29;20028;-80
2021/07/04 07:19:53;;;;;;;3.22;2.63;;;21.20;79.40;;;;;;4926031;29;20395;-82
2021/07/04 07:22:20;;;;;;;3.38;2.50;;;21.20;79.30;;;;;;4907411;29;20028;-79
2021/07/04 07:24:47;;;;;;;4.40;2.78;;;21.30;79.40;;;;;;4911868;29;20040;-79
2021/07/04 07:27:13;;;;;;;2.78;2.10;;;21.30;79.40;;;;;;4911379;29;20028;-80
2021/07/04 07:29:40;;;;;;;4.78;2.70;;;21.40;79.50;;;;;;4909425;29;20083;-81
2021/07/04 07:32:08;;;;;;;3.05;2.28;;;21.60;80.00;;;;;;4931676;29;20048;-82
2021/07/04 07:34:34;;;;;;;4.38;2.45;;;22.00;80.50;;;;;;4925645;29;20031;-82
2021/07/04 07:37:00;;;;;;;3.28;2.85;;;22.40;80.40;;;;;;4906970;29;20328;-82
2021/07/04 07:39:26;;;;;;;4.00;2.45;;;23.00;80.70;;;;;;4905696;29;20561;-82
2021/07/04 07:41:52;;;;;;;6.35;2.78;;;23.50;80.30;;;;;;4906298;29;20476;-87
2021/07/04 07:44:19;;;;;;;2.53;1.88;;;23.80;79.70;;;;;;4926447;29;20035;-82
2021/07/04 07:46:53;;;;;;;2.72;2.00;;;24.30;79.40;;;;;;4936197;29;20276;-81
2021/07/04 07:49:27;;;;;;;2.90;2.55;;;24.40;78.50;;;;;;4919877;29;20277;-81
2021/07/04 07:51:54;;;;;;;4.45;2.30;;;24.50;78.10;;;;;;4924537;29;20040;-81
2021/07/04 07:54:28;;;;;;;4.35;2.17;;;24.50;77.80;;;;;;4929038;29;20542;-80
2021/07/04 07:56:55;;;;;;;4.68;2.03;;;24.50;77.50;;;;;;4929454;29;20055;-83
2021/07/04 07:59:21;;;;;;;2.65;2.20;;;24.30;77.00;;;;;;4928739;29;20031;-85
2021/07/04 08:01:47;;;;;;;5.63;2.15;;;24.30;77.00;;;;;;4927769;29;20079;-80
2021/07/04 08:04:14;;;;;;;2.80;2.33;;;24.30;77.00;;;;;;4927277;29;20023;-82
2021/07/04 08:06:40;;;;;;;4.03;2.45;;;24.40;76.90;;;;;;4926690;29;20031;-80
2021/07/04 08:09:09;;;;;;;4.45;2.20;;;24.40;76.60;;;;;;4918756;29;20074;-79
2021/07/04 08:11:55;;;;;;;4.10;2.60;;;24.50;76.50;;;;;;4916793;29;20368;-79
2021/07/04 08:14:21;;;;;;;5.10;2.35;;;24.50;76.40;;;;;;4910524;29;20036;-79
2021/07/04 08:16:52;;;;;;;2.00;1.77;;;24.50;76.40;;;;;;4911048;29;20032;-80
2021/07/04 08:19:18;;;;;;;1.90;1.80;;;24.50;76.30;;;;;;4906447;29;20115;-79
2021/07/04 08:21:44;;;;;;;2.60;1.90;;;24.50;76.20;;;;;;4902667;29;20440;-79
2021/07/04 08:24:11;;;;;;;4.85;2.90;;;24.50;76.30;;;;;;4906139;29;20365;-79
2021/07/04 08:26:37;;;;;;;4.40;2.40;;;24.50;76.40;;;;;;4912007;29;20040;-79
2021/07/04 08:29:03;;;;;;;3.50;2.55;;;24.40;76.20;;;;;;4923710;29;20027;-77
2021/07/04 08:31:30;;;;;;;4.57;2.67;;;24.40;76.20;;;;;;4929774;29;20048;-77
2021/07/04 08:33:56;;;;;;;5.63;3.13;;;24.50;76.40;;;;;;4929798;29;20483;-77
2021/07/04 08:36:25;;;;;;;4.30;2.75;;;24.50;76.50;;;;;;4930440;29;20031;-79
2021/07/04 08:38:51;;;;;;;6.97;2.92;;;24.60;76.40;;;;;;4918210;29;20227;-81
2021/07/04 08:41:17;;;;;;;5.40;2.70;;;24.60;76.30;;;;;;4902540;29;20021;-79
2021/07/04 08:43:43;;;;;;;3.55;2.10;;;24.70;76.30;;;;;;4900291;29;20056;-78
2021/07/04 08:46:11;;;;;;;4.20;2.58;;;24.90;76.50;;;;;;4915290;29;20079;-79
2021/07/04 08:48:40;;;;;;;4.90;2.92;;;25.00;76.20;;;;;;4904535;29;20075;-80
2021/07/04 08:51:07;;;;;;;4.13;2.55;;;25.20;76.50;;;;;;4930588;29;20044;-78
2021/07/04 08:53:34;;;;;;;5.43;2.90;;;25.40;75.40;;;;;;4905602;29;20276;-78
2021/07/04 08:56:00;;;;;;;4.10;2.35;;;25.70;75.00;;;;;;4928019;29;20045;-78
2021/07/04 08:58:28;;;;;;;4.90;2.63;;;25.90;74.40;;;;;;4901539;29;20156;-78
2021/07/04 09:01:20;;;;;;;4.63;2.42;;;25.90;74.10;;;;;;4900179;29;20160;-77
2021/07/04 09:03:49;;;;;;;3.42;2.10;;;25.90;74.20;;;;;;4903505;29;20076;-78
2021/07/04 09:06:42;;;;;;;4.88;2.85;;;25.90;74.20;;;;;;4907483;29;20063;-79
2021/07/04 09:09:16;;;;;;;3.70;2.05;;;25.80;74.30;;;;;;4906738;29;20087;-82
2021/07/04 09:11:53;;;;;;;3.85;2.42;;;25.80;74.40;;;;;;4909597;29;20036;-80
2021/07/04 09:14:46;;;;;;;3.03;2.22;;;25.80;74.40;;;;;;4904768;29;20049;-80
2021/07/04 09:17:15;;;;;;;3.50;2.22;;;25.70;74.50;;;;;;4914172;29;20032;-80
2021/07/04 09:19:56;;;;;;;3.10;2.08;;;25.70;74.60;;;;;;4905546;29;20088;-80
2021/07/04 09:22:31;;;;;;;3.25;2.30;;;25.70;74.60;;;;;;4910036;29;20524;-80
2021/07/04 09:25:18;;;;;;;3.38;2.20;;;25.90;74.60;;;;;;4909209;29;20115;-79
2021/07/04 09:28:02;;;;;;;6.68;2.58;;;26.20;74.60;;;;;;4903284;29;20154;-80
2021/07/04 09:30:58;;;;;;;10.75;5.47;;;26.70;73.50;;;;;;4901136;29;20208;-80
2021/07/04 09:33:33;;;;;;;5.65;2.70;;;27.20;72.10;;;;;;4920492;29;20040;-81
2021/07/04 09:36:02;;;;;;;10.02;3.15;;;27.30;71.40;;;;;;4916716;29;20044;-80
2021/07/04 09:38:40;;;;;;;8.68;3.25;;;27.20;71.40;;;;;;4904444;29;20088;-82
2021/07/04 09:41:12;;;;;;;7.32;3.00;;;27.20;71.50;;;;;;4899530;29;20036;-82
2021/07/04 09:43:39;;;;;;;5.18;3.40;;;27.20;71.70;;;;;;4910500;29;20035;-83
2021/07/04 09:46:10;;;;;;;3.85;2.80;;;27.10;71.80;;;;;;4908049;29;20040;-80
2021/07/04 09:48:41;;;;;;;3.60;2.45;;;27.10;71.70;;;;;;4919777;29;20031;-81
2021/07/04 09:51:28;;;;;;;5.65;2.95;;;27.10;71.80;;;;;;4928479;29;20039;-80
2021/07/04 09:53:56;;;;;;;4.00;2.50;;;27.00;71.80;;;;;;4928040;29;20470;-82
2021/07/04 09:56:29;;;;;;;5.18;2.83;;;26.80;71.70;;;;;;4929113;29;20035;-82
2021/07/04 09:59:00;;;;;;;4.93;2.67;;;26.70;71.90;;;;;;4904094;29;20396;-81
2021/07/04 10:01:38;;;;;;;4.13;2.88;;;26.60;72.10;;;;;;4909704;29;20614;-81
2021/07/04 10:04:08;;;;;;;2.92;1.98;;;26.40;72.20;;;;;;4909647;29;20139;-81
2021/07/04 10:06:49;;;;;;;2.88;2.22;;;26.40;72.40;;;;;;4909438;29;20028;-80
2021/07/04 10:09:16;;;;;;;6.40;2.50;;;26.30;72.50;;;;;;4906323;29;20757;-82
2021/07/04 10:11:42;;;;;;;3.03;2.33;;;26.30;72.60;;;;;;4909598;29;20091;-80
2021/07/04 10:14:08;;;;;;;3.97;2.60;;;26.30;72.70;;;;;;4906954;29;20042;-81
2021/07/04 10:16:34;;;;;;;4.82;2.83;;;26.30;72.70;;;;;;4908886;29;20036;-81
2021/07/04 10:19:04;;;;;;;4.47;3.95;;;26.30;72.70;;;;;;4910355;29;20187;-81
2021/07/04 10:21:32;;;;;;;5.03;4.47;;;26.40;72.80;;;;;;4911004;29;20115;-80
2021/07/04 10:23:59;;;;;;;6.82;5.20;;;26.60;72.90;;;;;;4910381;29;20036;-81
2021/07/04 10:26:28;;;;;;;6.13;5.45;;;26.90;72.60;;;;;;4912781;29;20616;-81
2021/07/04 10:28:58;;;;;;;6.68;5.13;;;27.20;72.00;;;;;;4926180;29;20387;-81
2021/07/04 10:31:30;;;;;;;7.70;4.88;;;27.30;71.50;;;;;;4912545;29;20111;-82
2021/07/04 10:34:11;;;;;;;7.32;6.70;;;27.40;71.50;;;;;;4933352;29;20606;-89
2021/07/04 10:37:05;;;;;;;21.98;20.17;;;27.40;71.20;;;;;;4913223;29;20039;-83
2021/07/04 10:39:32;;;;;;;;;;;27.40;71.20;;;;;;4919644;29;20036;-85
2021/07/04 10:42:04;;;;;;;20.42;18.80;;;27.30;71.30;;;;;;4913370;29;20035;-82
2021/07/04 10:44:45;;;;;;;20.30;18.80;;;27.10;71.30;;;;;;4919184;29;20060;-83
2021/07/04 10:47:27;;;;;;;12.90;11.90;;;27.00;71.40;;;;;;4898358;29;20439;-83
2021/07/04 10:50:13;;;;;;;15.05;13.80;;;26.80;71.20;;;;;;4907421;29;20036;-85
2021/07/04 10:52:46;;;;;;;12.23;11.23;;;26.60;71.50;;;;;;4907615;29;20032;-81
2021/07/04 10:55:13;;;;;;;;;;;26.40;71.50;;;;;;4932745;29;20031;-82
2021/07/04 10:57:53;;;;;;;12.00;10.88;;;26.30;72.00;;;;;;4906197;29;19911;-81
2021/07/04 11:00:19;;;;;;;10.35;9.52;;;26.20;72.00;;;;;;4913547;29;20032;-80
2021/07/04 11:02:49;;;;;;;11.02;10.05;;;26.10;72.20;;;;;;4912890;29;20127;-79
2021/07/04 11:05:35;;;;;;;10.55;9.75;;;26.10;72.30;;;;;;4911247;29;20491;-79
2021/07/04 11:08:09;;;;;;;10.88;9.93;;;26.00;72.30;;;;;;4910782;29;20051;-81
2021/07/04 11:10:39;;;;;;;9.73;8.85;;;26.10;72.50;;;;;;4910790;29;20096;-78
2021/07/04 11:13:08;;;;;;;9.55;8.85;;;26.10;72.50;;;;;;4912173;29;20127;-78
2021/07/04 11:15:40;;;;;;;9.07;8.18;;;26.20;72.60;;;;;;4913836;29;20047;-79
2021/07/04 11:18:06;;;;;;;8.77;7.55;;;26.10;72.50;;;;;;4918927;29;20558;-78
2021/07/04 11:20:41;;;;;;;8.32;7.50;;;26.20;72.50;;;;;;4908100;29;20036;-78
2021/07/04 11:23:24;;;;;;;9.05;7.18;;;26.20;72.50;;;;;;4930110;28;20548;-78
2021/07/04 11:26:00;;;;;;;7.05;6.45;;;26.20;72.60;;;;;;4903128;29;20036;-79
2021/07/04 11:28:36;;;;;;;6.40;5.93;;;26.30;72.70;;;;;;4909019;29;20369;-79
2021/07/04 11:31:03;;;;;;;6.97;6.38;;;26.30;72.70;;;;;;4911200;29;20048;-81
2021/07/04 11:33:35;;;;;;;6.07;5.57;;;26.50;72.80;;;;;;4928598;29;20122;-80
2021/07/04 11:36:09;;;;;;;6.20;5.72;;;26.80;72.40;;;;;;4917645;29;20127;-81
2021/07/04 11:38:37;;;;;;;5.65;5.15;;;27.10;71.90;;;;;;4913506;29;20044;-81
2021/07/04 11:41:05;;;;;;;5.68;5.15;;;27.50;71.50;;;;;;4913900;29;20036;-79
2021/07/04 11:43:33;;;;;;;4.47;4.10;;;27.70;71.00;;;;;;4913480;29;20020;-77
2021/07/04 11:46:06;;;;;;;4.57;4.13;;;27.80;70.60;;;;;;4926113;29;20065;-78
2021/07/04 11:48:55;;;;;;;4.95;4.53;;;27.90;70.40;;;;;;4919275;29;20491;-78
2021/07/04 11:51:26;;;;;;;4.47;4.07;;;27.90;70.50;;;;;;4930715;29;20586;-79
2021/07/04 11:53:59;;;;;;;3.65;3.35;;;27.90;70.50;;;;;;4929171;29;20369;-79
2021/07/04 11:56:25;;;;;;;3.73;3.43;;;27.90;70.60;;;;;;4909421;29;20039;-80
2021/07/04 11:58:52;;;;;;;4.28;3.80;;;27.90;70.60;;;;;;4918060;29;20746;-77
2021/07/04 12:01:23;;;;;;;3.70;3.40;;;27.90;70.70;;;;;;4921075;29;20086;-78
2021/07/04 12:03:56;;;;;;;5.57;4.60;;;28.00;70.70;;;;;;4923126;29;20286;-78
2021/07/04 12:06:23;;;;;;;3.92;3.47;;;28.10;70.30;;;;;;4924283;29;20035;-79
2021/07/04 12:08:55;;;;;;;3.78;3.42;;;28.10;70.30;;;;;;4919986;29;20055;-78
2021/07/04 12:11:42;;;;;;;6.05;3.88;;;28.10;70.20;;;;;;4901807;29;20056;-79
2021/07/04 12:14:26;;;;;;;3.70;3.40;;;28.20;70.30;;;;;;4914358;29;20103;-81
2021/07/04 12:16:54;;;;;;;3.55;3.17;;;28.20;70.20;;;;;;4907890;29;20508;-81
2021/07/04 12:19:31;;;;;;;3.78;3.38;;;28.20;70.10;;;;;;4908345;29;20527;-80
2021/07/04 12:21:59;;;;;;;3.50;3.20;;;28.20;70.10;;;;;;4900700;29;20396;-80
2021/07/04 12:24:45;;;;;;;3.42;3.13;;;28.10;70.10;;;;;;4925281;29;20630;-80
2021/07/04 12:27:11;;;;;;;3.08;2.60;;;28.10;70.30;;;;;;4927396;29;20503;-83
2021/07/04 12:30:04;;;;;;;3.38;3.08;;;28.00;70.30;;;;;;4910130;29;20040;-83
2021/07/04 12:32:36;;;;;;;3.15;2.85;;;27.90;70.20;;;;;;4902145;29;20032;-82
2021/07/04 12:35:03;;;;;;;3.13;2.83;;;27.70;70.20;;;;;;4928515;29;20055;-81
2021/07/04 12:37:29;;;;;;;3.33;2.92;;;27.60;70.40;;;;;;4927684;29;20403;-82
2021/07/04 12:40:09;;;;;;;2.72;2.53;;;27.60;70.60;;;;;;4929933;29;20028;-81
2021/07/04 12:42:36;;;;;;;3.20;2.90;;;27.40;70.60;;;;;;4920778;29;20043;-84
2021/07/04 12:45:06;;;;;;;3.30;2.53;;;27.30;70.70;;;;;;4903567;29;20047;-82
2021/07/04 12:47:32;;;;;;;3.20;2.90;;;27.20;70.70;;;;;;4911666;29;20661;-80
2021/07/04 12:50:04;;;;;;;2.90;2.67;;;27.10;70.80;;;;;;4911626;29;20191;-81
2021/07/04 12:52:30;;;;;;;3.70;2.88;;;27.00;70.80;;;;;;4912324;29;20476;-81
2021/07/04 12:54:56;;;;;;;3.67;2.55;;;27.00;71.00;;;;;;4929509;29;20534;-80
2021/07/04 12:57:36;;;;;;;3.97;3.05;;;27.00;70.90;;;;;;4927780;29;20183;-80
2021/07/04 13:00:15;;;;;;;3.85;2.72;;;27.10;71.20;;;;;;4930496;29;20090;-81